createdAt,value
2023-05-19T00:11:26.979Z,14.3
2023-05-19T00:21:33.250Z,14.3
2023-05-19T00:31:39.488Z,14.2
2023-05-19T00:41:45.776Z,14.1
2023-05-19T00:51:51.066Z,14
2023-05-19T01:12:03.590Z,13.8
2023-05-19T01:22:09.840Z,13.7
2023-05-19T01:42:22.365Z,13.5
2023-05-19T01:52:28.637Z,13.4
2023-05-19T02:12:41.146Z,13.3
2023-05-19T02:22:47.413Z,13.2
2023-05-19T02:32:53.669Z,13.1
2023-05-19T02:42:59.932Z,13
2023-05-19T02:53:06.181Z,13
2023-05-19T03:03:11.498Z,12.9
2023-05-19T03:23:24.034Z,12.7
2023-05-19T03:33:30.312Z,12.6
2023-05-19T03:53:42.854Z,12.5
2023-05-19T04:24:01.474Z,12.4
2023-05-19T04:34:07.685Z,12.4
2023-05-19T04:44:13.876Z,12.4
2023-05-19T05:14:32.513Z,12.4
2023-05-19T05:24:37.757Z,12.4
2023-05-19T05:34:44.034Z,12.4
2023-05-19T05:54:56.457Z,12.5
2023-05-19T06:15:08.906Z,12.6
2023-05-19T06:25:15.082Z,12.7
2023-05-19T06:45:27.499Z,12.9
2023-05-19T06:55:33.817Z,13
2023-05-19T07:05:40.030Z,13.1
2023-05-19T07:25:52.568Z,13.4
2023-05-19T07:35:57.693Z,13.5
2023-05-19T07:46:03.887Z,13.7
2023-05-19T07:56:10.145Z,13.9
2023-05-19T08:26:28.714Z,14.4
2023-05-19T08:36:34.942Z,14.6
2023-05-19T08:46:41.154Z,14.8
2023-05-19T08:56:47.521Z,15
2023-05-19T09:16:59.896Z,15.5
2023-05-19T09:37:12.369Z,16.2
2023-05-19T09:47:18.534Z,16.6
2023-05-19T10:07:29.933Z,17.6
2023-05-19T10:17:36.244Z,18.1
2023-05-19T10:37:48.494Z,18.9
2023-05-19T10:47:54.845Z,19.3
2023-05-19T11:18:13.433Z,21.4
2023-05-19T11:28:19.723Z,22
2023-05-19T11:48:31.928Z,23.8
2023-05-19T11:58:38.299Z,24.6
2023-05-19T12:08:43.529Z,24.9
2023-05-19T12:18:49.736Z,25.6
2023-05-19T12:28:55.952Z,25.8
2023-05-19T12:39:02.218Z,25.4
2023-05-19T12:49:08.394Z,25.1
2023-05-19T12:59:14.589Z,24.6
2023-05-19T13:19:26.854Z,24.4
2023-05-19T13:39:39.412Z,24.5
2023-05-19T13:49:45.573Z,24.8
2023-05-19T13:59:51.657Z,25
2023-05-19T14:20:04.146Z,24.8
2023-05-19T14:30:09.336Z,24.4
2023-05-19T14:40:15.659Z,24
2023-05-19T14:50:21.832Z,23.7
2023-05-19T15:00:28.061Z,23.4
2023-05-19T15:20:40.370Z,22.8
2023-05-19T15:30:46.698Z,22.5
2023-05-19T15:40:52.780Z,22.3
2023-05-19T15:50:59.146Z,22.1
2023-05-19T16:01:05.210Z,21.9
2023-05-19T16:21:17.682Z,21.7
2023-05-19T16:31:23.917Z,21.6
2023-05-19T16:41:29.235Z,21.6
2023-05-19T16:51:35.457Z,21.5
2023-05-19T17:01:41.518Z,21.4
2023-05-19T17:21:53.909Z,21.2
2023-05-19T17:42:06.523Z,20.9
2023-05-19T17:52:12.747Z,20.7
2023-05-19T18:02:18.822Z,20.6
2023-05-19T18:12:24.194Z,20.4
2023-05-19T18:32:36.543Z,20.1
2023-05-19T18:42:42.772Z,19.9
2023-05-19T18:52:48.806Z,19.7
2023-05-19T19:02:55.065Z,19.5
2023-05-19T19:23:07.643Z,19.2
2023-05-19T19:33:13.994Z,19.1
2023-05-19T19:43:20.233Z,18.9
2023-05-19T19:53:26.457Z,18.8
2023-05-19T20:23:45.351Z,18.4
2023-05-19T20:33:50.535Z,18.3
2023-05-19T20:43:56.795Z,18.2
2023-05-19T21:04:09.177Z,18
2023-05-19T21:24:21.890Z,17.8
2023-05-19T21:34:28.102Z,17.6
2023-05-19T21:44:34.390Z,17.5
2023-05-19T21:54:40.651Z,17.5
2023-05-19T22:04:46.853Z,17.3
2023-05-19T22:14:53.198Z,17.3
2023-05-19T22:24:59.466Z,17.2
2023-05-19T22:45:11.960Z,17
2023-05-19T22:55:17.162Z,17
2023-05-19T23:05:23.469Z,16.9
2023-05-19T23:15:29.650Z,16.8
2023-05-19T23:25:36.099Z,16.8
2023-05-19T23:35:42.293Z,16.7
2023-05-19T23:45:48.444Z,16.7
2023-05-19T23:55:54.794Z,16.7
